sensor_id;sensor_type;location;lat;lon;timestamp;pressure;altitude;pressure_sealevel;temperature;humidity
41467;BME280;27205;53.690;19.948;2023-03-07T00:00:00;98507.20;;;-2.68;62.89
41467;BME280;27205;53.690;19.948;2023-03-07T00:05:04;98505.68;;;-2.72;63.68
41467;BME280;27205;53.690;19.948;2023-03-07T00:10:09;98502.77;;;-2.77;63.22
41467;BME280;27205;53.690;19.948;2023-03-07T00:15:12;98493.29;;;-2.80;63.33
41467;BME280;27205;53.690;19.948;2023-03-07T00:20:16;98486.20;;;-2.84;63.25
41467;BME280;27205;53.690;19.948;2023-03-07T00:25:20;98486.13;;;-2.87;63.21
41467;BME280;27205;53.690;19.948;2023-03-07T00:30:23;98488.80;;;-2.90;63.46
41467;BME280;27205;53.690;19.948;2023-03-07T00:35:27;98486.77;;;-2.92;64.01
41467;BME280;27205;53.690;19.948;2023-03-07T00:40:30;98489.61;;;-2.92;64.15
41467;BME280;27205;53.690;19.948;2023-03-07T00:45:34;98487.07;;;-2.95;63.67
41467;BME280;27205;53.690;19.948;2023-03-07T00:50:38;98486.88;;;-2.98;64.15
41467;BME280;27205;53.690;19.948;2023-03-07T00:55:42;98485.23;;;-3.01;63.94
41467;BME280;27205;53.690;19.948;2023-03-07T01:00:56;98478.17;;;-3.01;63.83
41467;BME280;27205;53.690;19.948;2023-03-07T01:06:08;98475.78;;;-3.05;63.71
41467;BME280;27205;53.690;19.948;2023-03-07T01:11:13;98470.39;;;-3.09;64.44
41467;BME280;27205;53.690;19.948;2023-03-07T01:16:19;98468.55;;;-3.09;64.44
41467;BME280;27205;53.690;19.948;2023-03-07T01:21:26;98467.73;;;-3.10;64.16
41467;BME280;27205;53.690;19.948;2023-03-07T01:26:31;98468.67;;;-3.11;64.68
41467;BME280;27205;53.690;19.948;2023-03-07T01:31:34;98465.34;;;-3.10;64.29
41467;BME280;27205;53.690;19.948;2023-03-07T01:36:38;98462.08;;;-3.08;64.80
41467;BME280;27205;53.690;19.948;2023-03-07T01:41:42;98453.11;;;-3.07;64.85
41467;BME280;27205;53.690;19.948;2023-03-07T01:51:57;98446.80;;;-3.02;65.26
41467;BME280;27205;53.690;19.948;2023-03-07T01:57:03;98446.30;;;-3.00;65.18
41467;BME280;27205;53.690;19.948;2023-03-07T02:02:10;98444.06;;;-3.00;65.13
41467;BME280;27205;53.690;19.948;2023-03-07T02:07:16;98438.81;;;-3.00;65.28
41467;BME280;27205;53.690;19.948;2023-03-07T02:12:23;98439.63;;;-3.01;65.33
41467;BME280;27205;53.690;19.948;2023-03-07T02:17:27;98438.57;;;-3.02;65.84
41467;BME280;27205;53.690;19.948;2023-03-07T02:22:30;98439.48;;;-3.02;65.93
41467;BME280;27205;53.690;19.948;2023-03-07T02:27:35;98436.77;;;-3.08;65.87
41467;BME280;27205;53.690;19.948;2023-03-07T02:32:39;98431.40;;;-3.12;66.10
41467;BME280;27205;53.690;19.948;2023-03-07T02:37:45;98426.58;;;-3.15;65.88
41467;BME280;27205;53.690;19.948;2023-03-07T02:42:52;98425.98;;;-3.15;66.33
41467;BME280;27205;53.690;19.948;2023-03-07T02:47:56;98421.85;;;-3.16;66.15
41467;BME280;27205;53.690;19.948;2023-03-07T02:53:00;98424.30;;;-3.16;66.23
41467;BME280;27205;53.690;19.948;2023-03-07T02:58:03;98416.42;;;-3.14;66.31
41467;BME280;27205;53.690;19.948;2023-03-07T03:03:07;98414.70;;;-3.12;66.19
41467;BME280;27205;53.690;19.948;2023-03-07T03:08:11;98409.55;;;-3.09;66.62
41467;BME280;27205;53.690;19.948;2023-03-07T03:13:15;98402.73;;;-3.07;66.70
41467;BME280;27205;53.690;19.948;2023-03-07T03:18:18;98402.06;;;-3.04;66.78
41467;BME280;27205;53.690;19.948;2023-03-07T03:23:25;98399.82;;;-3.03;66.81
41467;BME280;27205;53.690;19.948;2023-03-07T03:28:28;98395.66;;;-3.00;66.87
41467;BME280;27205;53.690;19.948;2023-03-07T03:33:32;98399.35;;;-2.97;67.02
41467;BME280;27205;53.690;19.948;2023-03-07T03:38:36;98390.20;;;-2.93;66.88
41467;BME280;27205;53.690;19.948;2023-03-07T03:43:40;98385.87;;;-2.92;67.35
41467;BME280;27205;53.690;19.948;2023-03-07T03:48:49;98386.58;;;-2.89;67.17
41467;BME280;27205;53.690;19.948;2023-03-07T03:53:54;98385.58;;;-2.89;67.14
41467;BME280;27205;53.690;19.948;2023-03-07T03:58:59;98376.52;;;-2.91;67.45
41467;BME280;27205;53.690;19.948;2023-03-07T04:04:03;98375.54;;;-2.88;67.66
41467;BME280;27205;53.690;19.948;2023-03-07T04:09:08;98367.94;;;-2.89;67.61
41467;BME280;27205;53.690;19.948;2023-03-07T04:14:11;98360.83;;;-2.87;67.66
41467;BME280;27205;53.690;19.948;2023-03-07T04:19:15;98364.10;;;-2.86;67.64
41467;BME280;27205;53.690;19.948;2023-03-07T04:24:18;98363.66;;;-2.84;68.19
41467;BME280;27205;53.690;19.948;2023-03-07T04:29:22;98361.58;;;-2.83;68.02
41467;BME280;27205;53.690;19.948;2023-03-07T04:34:26;98361.48;;;-2.82;68.28
41467;BME280;27205;53.690;19.948;2023-03-07T04:39:29;98359.23;;;-2.78;68.01
41467;BME280;27205;53.690;19.948;2023-03-07T04:44:33;98356.66;;;-2.73;68.11
41467;BME280;27205;53.690;19.948;2023-03-07T04:49:36;98350.86;;;-2.62;68.00
41467;BME280;27205;53.690;19.948;2023-03-07T04:54:40;98346.82;;;-2.57;67.82
41467;BME280;27205;53.690;19.948;2023-03-07T04:59:44;98342.10;;;-2.53;67.96
41467;BME280;27205;53.690;19.948;2023-03-07T05:04:47;98334.42;;;-2.48;68.07
41467;BME280;27205;53.690;19.948;2023-03-07T05:09:51;98328.48;;;-2.44;68.33
41467;BME280;27205;53.690;19.948;2023-03-07T05:14:54;98325.89;;;-2.39;68.35
41467;BME280;27205;53.690;19.948;2023-03-07T05:19:58;98324.20;;;-2.36;68.54
41467;BME280;27205;53.690;19.948;2023-03-07T05:25:01;98319.27;;;-2.33;68.60
41467;BME280;27205;53.690;19.948;2023-03-07T05:30:05;98310.82;;;-2.25;68.80
41467;BME280;27205;53.690;19.948;2023-03-07T05:35:09;98306.98;;;-2.19;68.60
41467;BME280;27205;53.690;19.948;2023-03-07T05:40:14;98302.08;;;-2.09;68.90
41467;BME280;27205;53.690;19.948;2023-03-07T05:45:17;98296.21;;;-1.92;68.96
41467;BME280;27205;53.690;19.948;2023-03-07T05:50:23;98297.08;;;-1.72;69.30
41467;BME280;27205;53.690;19.948;2023-03-07T05:55:27;98293.91;;;-1.54;69.08
41467;BME280;27205;53.690;19.948;2023-03-07T06:00:30;98291.73;;;-1.39;69.32
41467;BME280;27205;53.690;19.948;2023-03-07T06:05:34;98291.50;;;-1.24;69.27
41467;BME280;27205;53.690;19.948;2023-03-07T06:10:37;98295.39;;;-1.12;69.15
41467;BME280;27205;53.690;19.948;2023-03-07T06:15:42;98286.34;;;-1.02;69.40
41467;BME280;27205;53.690;19.948;2023-03-07T06:20:53;98284.98;;;-1.00;69.16
41467;BME280;27205;53.690;19.948;2023-03-07T06:25:58;98279.38;;;-0.97;69.25
41467;BME280;27205;53.690;19.948;2023-03-07T06:31:09;98274.48;;;-0.88;69.51
41467;BME280;27205;53.690;19.948;2023-03-07T06:36:15;98273.35;;;-0.74;69.52
41467;BME280;27205;53.690;19.948;2023-03-07T06:41:19;98271.34;;;-0.58;69.28
41467;BME280;27205;53.690;19.948;2023-03-07T06:46:23;98271.58;;;-0.46;69.38
41467;BME280;27205;53.690;19.948;2023-03-07T06:51:26;98268.51;;;-0.37;69.38
41467;BME280;27205;53.690;19.948;2023-03-07T06:56:30;98258.41;;;-0.32;69.41
41467;BME280;27205;53.690;19.948;2023-03-07T07:01:33;98262.58;;;-0.22;69.36
41467;BME280;27205;53.690;19.948;2023-03-07T07:06:37;98253.73;;;-0.10;69.42
41467;BME280;27205;53.690;19.948;2023-03-07T07:11:41;98253.33;;;0.01;69.60
41467;BME280;27205;53.690;19.948;2023-03-07T07:16:44;98244.30;;;0.11;69.65
41467;BME280;27205;53.690;19.948;2023-03-07T07:21:48;98237.54;;;0.23;69.79
41467;BME280;27205;53.690;19.948;2023-03-07T07:26:52;98234.11;;;0.40;69.72
41467;BME280;27205;53.690;19.948;2023-03-07T07:31:56;98227.41;;;0.60;69.65
41467;BME280;27205;53.690;19.948;2023-03-07T07:36:59;98223.84;;;0.80;69.68
41467;BME280;27205;53.690;19.948;2023-03-07T07:42:03;98224.33;;;0.97;69.69
41467;BME280;27205;53.690;19.948;2023-03-07T07:47:07;98219.26;;;1.15;69.57
41467;BME280;27205;53.690;19.948;2023-03-07T07:52:10;98212.52;;;1.25;69.60
41467;BME280;27205;53.690;19.948;2023-03-07T07:57:14;98208.31;;;1.37;69.43
41467;BME280;27205;53.690;19.948;2023-03-07T08:02:17;98201.67;;;1.53;69.30
41467;BME280;27205;53.690;19.948;2023-03-07T08:07:21;98201.36;;;1.69;69.46
41467;BME280;27205;53.690;19.948;2023-03-07T08:12:25;98191.21;;;1.81;69.25
41467;BME280;27205;53.690;19.948;2023-03-07T08:17:30;98181.73;;;1.84;69.32
41467;BME280;27205;53.690;19.948;2023-03-07T08:22:35;98170.48;;;1.78;69.17
41467;BME280;27205;53.690;19.948;2023-03-07T08:27:38;98167.06;;;1.82;69.28
41467;BME280;27205;53.690;19.948;2023-03-07T08:32:42;98153.44;;;1.92;69.23
41467;BME280;27205;53.690;19.948;2023-03-07T08:37:46;98147.71;;;2.07;69.37
41467;BME280;27205;53.690;19.948;2023-03-07T08:42:51;98142.48;;;2.21;69.21
41467;BME280;27205;53.690;19.948;2023-03-07T08:47:57;98143.20;;;2.43;69.07
41467;BME280;27205;53.690;19.948;2023-03-07T08:53:01;98142.73;;;2.72;69.13
41467;BME280;27205;53.690;19.948;2023-03-07T08:58:06;98134.91;;;2.92;68.98
41467;BME280;27205;53.690;19.948;2023-03-07T09:03:09;98129.15;;;2.97;68.74
41467;BME280;27205;53.690;19.948;2023-03-07T09:08:13;98127.87;;;3.02;68.88
41467;BME280;27205;53.690;19.948;2023-03-07T09:13:17;98125.45;;;3.09;68.64
41467;BME280;27205;53.690;19.948;2023-03-07T09:18:20;98114.95;;;3.25;68.65
41467;BME280;27205;53.690;19.948;2023-03-07T09:23:24;98101.88;;;3.33;68.37
41467;BME280;27205;53.690;19.948;2023-03-07T09:28:28;98092.41;;;3.34;67.65
41467;BME280;27205;53.690;19.948;2023-03-07T09:33:31;98086.33;;;3.55;67.51
41467;BME280;27205;53.690;19.948;2023-03-07T09:38:37;98079.34;;;3.90;66.62
41467;BME280;27205;53.690;19.948;2023-03-07T09:43:50;98074.40;;;4.11;66.11
41467;BME280;27205;53.690;19.948;2023-03-07T09:49:15;98061.61;;;4.46;65.94
41467;BME280;27205;53.690;19.948;2023-03-07T09:54:48;98046.54;;;4.89;65.70
41467;BME280;27205;53.690;19.948;2023-03-07T09:59:54;98039.29;;;5.21;65.62
41467;BME280;27205;53.690;19.948;2023-03-07T10:10:37;98023.46;;;5.44;64.97
41467;BME280;27205;53.690;19.948;2023-03-07T10:15:45;98013.73;;;5.55;64.81
41467;BME280;27205;53.690;19.948;2023-03-07T10:26:21;98004.47;;;5.66;64.29
41467;BME280;27205;53.690;19.948;2023-03-07T10:31:32;97992.69;;;5.70;64.18
41467;BME280;27205;53.690;19.948;2023-03-07T10:36:48;97985.65;;;5.67;63.66
41467;BME280;27205;53.690;19.948;2023-03-07T10:42:11;97975.37;;;5.60;63.29
41467;BME280;27205;53.690;19.948;2023-03-07T10:47:20;97967.98;;;5.67;63.14
41467;BME280;27205;53.690;19.948;2023-03-07T10:52:34;97958.75;;;5.78;62.76
41467;BME280;27205;53.690;19.948;2023-03-07T10:57:40;97951.95;;;5.96;62.70
41467;BME280;27205;53.690;19.948;2023-03-07T11:02:45;97936.52;;;6.07;62.99
41467;BME280;27205;53.690;19.948;2023-03-07T11:07:49;97920.40;;;6.18;62.96
41467;BME280;27205;53.690;19.948;2023-03-07T11:12:54;97901.36;;;6.09;62.86
41467;BME280;27205;53.690;19.948;2023-03-07T11:17:58;97899.51;;;5.90;62.61
41467;BME280;27205;53.690;19.948;2023-03-07T11:28:28;97877.27;;;5.25;62.75
41467;BME280;27205;53.690;19.948;2023-03-07T11:33:55;97871.70;;;4.81;63.01
41467;BME280;27205;53.690;19.948;2023-03-07T11:39:20;97871.08;;;4.39;63.27
41467;BME280;27205;53.690;19.948;2023-03-07T12:06:13;97822.00;;;4.03;64.79
41467;BME280;27205;53.690;19.948;2023-03-07T12:16:44;97807.35;;;4.48;65.17
41467;BME280;27205;53.690;19.948;2023-03-07T12:27:25;97788.36;;;4.36;65.34
41467;BME280;27205;53.690;19.948;2023-03-07T12:32:33;97782.16;;;4.32;65.42
41467;BME280;27205;53.690;19.948;2023-03-07T12:37:52;97764.46;;;4.44;65.90
41467;BME280;27205;53.690;19.948;2023-03-07T12:43:25;97756.89;;;4.36;65.79
41467;BME280;27205;53.690;19.948;2023-03-07T12:48:57;97747.52;;;4.08;66.15
41467;BME280;27205;53.690;19.948;2023-03-07T12:54:21;97741.98;;;3.94;66.36
41467;BME280;27205;53.690;19.948;2023-03-07T12:59:26;97741.14;;;3.78;66.74
41467;BME280;27205;53.690;19.948;2023-03-07T13:04:33;97738.38;;;3.67;66.91
41467;BME280;27205;53.690;19.948;2023-03-07T13:09:40;97735.58;;;3.61;67.18
41467;BME280;27205;53.690;19.948;2023-03-07T13:14:55;97729.79;;;3.53;67.41
41467;BME280;27205;53.690;19.948;2023-03-07T13:20:09;97721.83;;;3.46;67.94
41467;BME280;27205;53.690;19.948;2023-03-07T13:30:31;97719.01;;;3.46;68.86
41467;BME280;27205;53.690;19.948;2023-03-07T13:51:08;97691.59;;;3.60;70.36
41467;BME280;27205;53.690;19.948;2023-03-07T14:01:19;97684.23;;;3.75;71.34
41467;BME280;27205;53.690;19.948;2023-03-07T14:06:32;97670.65;;;3.87;71.44
41467;BME280;27205;53.690;19.948;2023-03-07T14:12:05;97662.91;;;4.05;71.72
41467;BME280;27205;53.690;19.948;2023-03-07T14:22:47;97635.64;;;4.18;72.46
41467;BME280;27205;53.690;19.948;2023-03-07T14:27:57;97634.26;;;4.22;72.85
41467;BME280;27205;53.690;19.948;2023-03-07T14:33:01;97628.42;;;4.25;72.92
41467;BME280;27205;53.690;19.948;2023-03-07T14:38:15;97622.92;;;4.23;73.34
41467;BME280;27205;53.690;19.948;2023-03-07T14:43:47;97624.32;;;4.18;73.74
41467;BME280;27205;53.690;19.948;2023-03-07T14:49:25;97623.11;;;4.17;73.88
41467;BME280;27205;53.690;19.948;2023-03-07T14:54:36;97608.62;;;4.14;74.04
41467;BME280;27205;53.690;19.948;2023-03-07T14:59:40;97609.88;;;4.10;73.99
41467;BME280;27205;53.690;19.948;2023-03-07T15:04:43;97608.61;;;4.02;74.54
41467;BME280;27205;53.690;19.948;2023-03-07T15:09:47;97604.52;;;3.94;74.75
41467;BME280;27205;53.690;19.948;2023-03-07T15:14:54;97600.81;;;3.88;74.87
41467;BME280;27205;53.690;19.948;2023-03-07T15:20:06;97602.50;;;3.83;74.85
41467;BME280;27205;53.690;19.948;2023-03-07T15:25:20;97602.19;;;3.77;75.11
41467;BME280;27205;53.690;19.948;2023-03-07T15:30:33;97598.35;;;3.73;75.45
41467;BME280;27205;53.690;19.948;2023-03-07T15:35:37;97594.20;;;3.65;75.61
41467;BME280;27205;53.690;19.948;2023-03-07T15:40:41;97591.16;;;3.54;75.91
41467;BME280;27205;53.690;19.948;2023-03-07T15:45:56;97585.59;;;3.46;76.01
41467;BME280;27205;53.690;19.948;2023-03-07T15:51:04;97581.63;;;3.38;76.29
41467;BME280;27205;53.690;19.948;2023-03-07T16:01:27;97583.95;;;3.29;76.55
41467;BME280;27205;53.690;19.948;2023-03-07T16:11:40;97583.58;;;3.21;76.62
41467;BME280;27205;53.690;19.948;2023-03-07T16:16:46;97569.94;;;3.15;76.96
41467;BME280;27205;53.690;19.948;2023-03-07T16:21:49;97562.45;;;3.12;76.79
41467;BME280;27205;53.690;19.948;2023-03-07T16:26:53;97550.20;;;3.10;76.88
41467;BME280;27205;53.690;19.948;2023-03-07T16:31:56;97542.00;;;3.05;77.17
41467;BME280;27205;53.690;19.948;2023-03-07T16:37:03;97541.95;;;3.02;77.29
41467;BME280;27205;53.690;19.948;2023-03-07T16:42:22;97539.28;;;3.01;77.36
41467;BME280;27205;53.690;19.948;2023-03-07T16:47:26;97542.30;;;3.01;77.43
41467;BME280;27205;53.690;19.948;2023-03-07T16:52:29;97546.84;;;3.00;77.34
41467;BME280;27205;53.690;19.948;2023-03-07T16:57:33;97548.69;;;2.95;77.50
41467;BME280;27205;53.690;19.948;2023-03-07T17:02:37;97551.54;;;2.97;77.53
41467;BME280;27205;53.690;19.948;2023-03-07T17:07:40;97537.95;;;2.93;77.71
41467;BME280;27205;53.690;19.948;2023-03-07T17:12:44;97526.54;;;2.89;77.93
41467;BME280;27205;53.690;19.948;2023-03-07T17:17:48;97517.30;;;2.91;77.67
41467;BME280;27205;53.690;19.948;2023-03-07T17:22:52;97506.41;;;2.93;77.69
41467;BME280;27205;53.690;19.948;2023-03-07T17:28:05;97498.46;;;2.94;77.66
41467;BME280;27205;53.690;19.948;2023-03-07T17:33:11;97492.19;;;2.98;77.72
41467;BME280;27205;53.690;19.948;2023-03-07T17:38:14;97483.56;;;3.03;77.50
41467;BME280;27205;53.690;19.948;2023-03-07T17:43:18;97474.20;;;3.05;77.53
41467;BME280;27205;53.690;19.948;2023-03-07T17:48:21;97466.45;;;3.05;77.73
41467;BME280;27205;53.690;19.948;2023-03-07T17:53:25;97457.56;;;3.05;77.69
41467;BME280;27205;53.690;19.948;2023-03-07T17:58:28;97442.21;;;3.05;77.66
41467;BME280;27205;53.690;19.948;2023-03-07T18:03:33;97426.12;;;3.06;77.90
41467;BME280;27205;53.690;19.948;2023-03-07T18:08:36;97414.87;;;3.08;78.00
41467;BME280;27205;53.690;19.948;2023-03-07T18:13:41;97409.23;;;3.12;78.33
41467;BME280;27205;53.690;19.948;2023-03-07T18:18:44;97400.80;;;3.16;78.77
41467;BME280;27205;53.690;19.948;2023-03-07T18:24:01;97386.45;;;3.14;79.14
41467;BME280;27205;53.690;19.948;2023-03-07T18:29:05;97380.84;;;3.18;79.42
41467;BME280;27205;53.690;19.948;2023-03-07T18:34:08;97374.92;;;3.21;79.82
41467;BME280;27205;53.690;19.948;2023-03-07T18:39:13;97388.83;;;3.26;80.07
41467;BME280;27205;53.690;19.948;2023-03-07T18:44:18;97475.08;;;3.13;80.85
41467;BME280;27205;53.690;19.948;2023-03-07T18:49:22;97486.27;;;2.70;81.09
41467;BME280;27205;53.690;19.948;2023-03-07T18:54:25;97489.21;;;2.49;80.77
41467;BME280;27205;53.690;19.948;2023-03-07T18:59:29;97501.34;;;2.34;80.84
41467;BME280;27205;53.690;19.948;2023-03-07T19:04:32;97495.08;;;2.23;81.39
41467;BME280;27205;53.690;19.948;2023-03-07T19:09:36;97505.17;;;2.15;81.63
41467;BME280;27205;53.690;19.948;2023-03-07T19:14:42;97514.64;;;2.07;82.29
41467;BME280;27205;53.690;19.948;2023-03-07T19:19:45;97516.80;;;2.03;82.61
41467;BME280;27205;53.690;19.948;2023-03-07T19:24:50;97517.02;;;1.99;83.30
41467;BME280;27205;53.690;19.948;2023-03-07T19:29:53;97525.76;;;1.95;83.38
41467;BME280;27205;53.690;19.948;2023-03-07T19:34:57;97524.59;;;1.90;83.63
41467;BME280;27205;53.690;19.948;2023-03-07T19:40:01;97519.89;;;1.87;83.93
41467;BME280;27205;53.690;19.948;2023-03-07T19:45:05;97508.99;;;1.81;84.20
41467;BME280;27205;53.690;19.948;2023-03-07T19:50:09;97503.41;;;1.84;84.00
41467;BME280;27205;53.690;19.948;2023-03-07T19:55:12;97467.65;;;1.85;83.63
41467;BME280;27205;53.690;19.948;2023-03-07T20:00:17;97463.36;;;1.84;83.54
41467;BME280;27205;53.690;19.948;2023-03-07T20:05:22;97464.78;;;1.81;83.44
41467;BME280;27205;53.690;19.948;2023-03-07T20:10:26;97472.59;;;1.82;83.20
41467;BME280;27205;53.690;19.948;2023-03-07T20:15:30;97478.30;;;1.81;83.07
41467;BME280;27205;53.690;19.948;2023-03-07T20:20:34;97488.72;;;1.81;83.14
41467;BME280;27205;53.690;19.948;2023-03-07T20:25:38;97496.34;;;1.82;82.88
41467;BME280;27205;53.690;19.948;2023-03-07T20:30:42;97497.91;;;1.79;82.88
41467;BME280;27205;53.690;19.948;2023-03-07T20:35:45;97505.21;;;1.82;82.70
41467;BME280;27205;53.690;19.948;2023-03-07T20:40:58;97513.92;;;1.78;82.73
41467;BME280;27205;53.690;19.948;2023-03-07T20:46:09;97512.60;;;1.75;82.73
41467;BME280;27205;53.690;19.948;2023-03-07T20:51:17;97521.49;;;1.70;82.90
41467;BME280;27205;53.690;19.948;2023-03-07T20:56:22;97525.84;;;1.74;83.06
41467;BME280;27205;53.690;19.948;2023-03-07T21:01:28;97524.42;;;1.75;83.24
41467;BME280;27205;53.690;19.948;2023-03-07T21:06:36;97529.02;;;1.75;83.31
41467;BME280;27205;53.690;19.948;2023-03-07T21:11:45;97541.91;;;1.73;83.26
41467;BME280;27205;53.690;19.948;2023-03-07T21:16:49;97544.73;;;1.73;83.30
41467;BME280;27205;53.690;19.948;2023-03-07T21:21:52;97535.80;;;1.73;83.45
41467;BME280;27205;53.690;19.948;2023-03-07T21:26:56;97547.52;;;1.72;83.74
41467;BME280;27205;53.690;19.948;2023-03-07T21:32:00;97544.93;;;1.71;83.88
41467;BME280;27205;53.690;19.948;2023-03-07T21:37:04;97540.38;;;1.70;83.85
41467;BME280;27205;53.690;19.948;2023-03-07T21:42:07;97542.11;;;1.66;83.90
41467;BME280;27205;53.690;19.948;2023-03-07T21:47:11;97545.63;;;1.61;83.99
41467;BME280;27205;53.690;19.948;2023-03-07T21:52:15;97553.03;;;1.59;84.17
41467;BME280;27205;53.690;19.948;2023-03-07T21:57:18;97549.48;;;1.57;84.27
41467;BME280;27205;53.690;19.948;2023-03-07T22:02:22;97548.10;;;1.57;84.11
41467;BME280;27205;53.690;19.948;2023-03-07T22:07:26;97551.41;;;1.57;84.21
41467;BME280;27205;53.690;19.948;2023-03-07T22:12:30;97555.01;;;1.54;84.20
41467;BME280;27205;53.690;19.948;2023-03-07T22:17:33;97559.51;;;1.52;84.28
41467;BME280;27205;53.690;19.948;2023-03-07T22:22:37;97568.38;;;1.52;84.24
41467;BME280;27205;53.690;19.948;2023-03-07T22:27:40;97566.11;;;1.52;84.36
41467;BME280;27205;53.690;19.948;2023-03-07T22:32:45;97574.35;;;1.54;84.44
41467;BME280;27205;53.690;19.948;2023-03-07T22:37:49;97565.51;;;1.53;84.30
41467;BME280;27205;53.690;19.948;2023-03-07T22:42:52;97569.34;;;1.52;84.33
41467;BME280;27205;53.690;19.948;2023-03-07T22:47:56;97568.72;;;1.49;84.45
41467;BME280;27205;53.690;19.948;2023-03-07T22:53:00;97564.25;;;1.45;84.48
41467;BME280;27205;53.690;19.948;2023-03-07T22:58:03;97572.39;;;1.45;84.39
41467;BME280;27205;53.690;19.948;2023-03-07T23:03:07;97579.27;;;1.37;84.53
41467;BME280;27205;53.690;19.948;2023-03-07T23:08:11;97574.46;;;1.28;84.45
41467;BME280;27205;53.690;19.948;2023-03-07T23:13:14;97583.08;;;1.23;84.64
41467;BME280;27205;53.690;19.948;2023-03-07T23:18:19;97585.21;;;1.17;84.44
41467;BME280;27205;53.690;19.948;2023-03-07T23:23:22;97592.99;;;1.11;84.67
41467;BME280;27205;53.690;19.948;2023-03-07T23:28:26;97592.28;;;1.10;84.50
41467;BME280;27205;53.690;19.948;2023-03-07T23:33:30;97598.48;;;1.07;84.48
41467;BME280;27205;53.690;19.948;2023-03-07T23:38:33;97599.42;;;1.07;84.50
41467;BME280;27205;53.690;19.948;2023-03-07T23:43:37;97591.67;;;1.10;84.46
41467;BME280;27205;53.690;19.948;2023-03-07T23:48:40;97596.48;;;1.15;84.58
41467;BME280;27205;53.690;19.948;2023-03-07T23:53:44;97600.08;;;1.20;84.59
41467;BME280;27205;53.690;19.948;2023-03-07T23:58:49;97598.02;;;1.21;84.52
